Time;durP1;ratioP1;P1;durP2;ratioP2;P2;SDS_P1;SDS_P2;PMS_P1;PMS_P2;Temp;Humidity;BMP_temperature;BMP_pressure;BME280_temperature;BME280_humidity;BME280_pressure;Samples;Min_cycle;Max_cycle;Signal;HPM_P1;HPM_P2
2021/12/23 00:00:23;;;;;;;246.50;160.18;;;;;;;24.44;32.30;100989.66;5065892;28;20041;-41
2021/12/23 00:02:51;;;;;;;241.60;164.77;;;;;;;24.46;32.50;100993.19;5063918;28;20032;-41
2021/12/23 00:05:20;;;;;;;243.80;164.43;;;;;;;24.39;32.57;100988.75;5065682;28;20039;-42
2021/12/23 00:07:49;;;;;;;247.32;169.95;;;;;;;24.43;32.37;100980.03;5065642;28;20028;-41
2021/12/23 00:10:17;;;;;;;235.10;163.25;;;;;;;24.48;32.31;100977.50;5063593;28;20097;-41
2021/12/23 00:12:47;;;;;;;251.60;173.57;;;;;;;24.45;32.43;100969.59;5065663;28;20032;-40
2021/12/23 00:16:00;;;;;;;261.38;174.45;;;;;;;24.38;32.18;100973.88;5065622;28;20072;-41
2021/12/23 00:23:27;;;;;;;256.30;177.27;;;;;;;24.29;32.78;100966.78;5065845;28;20105;-41
2021/12/23 00:25:57;;;;;;;270.25;179.88;;;;;;;24.36;32.42;100962.50;5065158;28;20031;-41
2021/12/23 00:28:26;;;;;;;253.38;178.80;;;;;;;24.42;32.14;100957.28;5064658;28;20158;-41
2021/12/23 00:30:54;;;;;;;266.88;181.77;;;;;;;24.42;32.53;100962.53;5065211;28;20111;-41
2021/12/23 00:33:23;;;;;;;265.05;185.93;;;;;;;24.34;32.20;100964.22;5065470;28;20546;-41
2021/12/23 00:35:53;;;;;;;266.90;186.13;;;;;;;24.35;32.85;100965.97;5065494;28;20032;-41
2021/12/23 00:38:29;;;;;;;266.48;181.05;;;;;;;24.32;32.50;100971.19;5065403;28;20024;-41
2021/12/23 00:41:00;;;;;;;279.00;185.27;;;;;;;24.21;32.96;100958.84;5065174;28;20032;-41
2021/12/23 00:43:29;;;;;;;271.75;186.55;;;;;;;24.24;32.84;100963.22;5064830;28;20512;-41
2021/12/23 00:45:57;;;;;;;284.95;194.93;;;;;;;24.21;32.76;100956.22;5064255;28;20501;-41
2021/12/23 00:48:27;;;;;;;264.73;188.95;;;;;;;24.17;32.60;100957.03;5063179;28;20032;-41
2021/12/23 00:50:55;;;;;;;274.45;193.98;;;;;;;24.17;33.01;100956.13;5064814;28;20052;-41
2021/12/23 00:53:24;;;;;;;265.60;186.93;;;;;;;24.25;32.82;100955.38;5064994;28;20036;-41
2021/12/23 00:55:55;;;;;;;271.33;189.95;;;;;;;24.21;32.64;100953.59;5064963;28;20644;-41
2021/12/23 00:58:25;;;;;;;285.55;192.43;;;;;;;24.18;32.69;100947.41;5065019;28;20029;-41
2021/12/23 01:00:54;;;;;;;280.65;195.65;;;;;;;24.16;32.61;100941.31;5070554;22;20085;-42
2021/12/23 01:03:22;;;;;;;290.50;197.50;;;;;;;24.23;32.85;100937.88;5005176;28;20061;-42
2021/12/23 01:05:52;;;;;;;288.95;200.98;;;;;;;24.24;32.48;100930.00;5005287;28;20867;-42
2021/12/23 01:08:20;;;;;;;291.02;201.40;;;;;;;24.16;32.52;100934.31;5004710;28;20034;-41
2021/12/23 01:10:52;;;;;;;289.90;199.07;;;;;;;24.09;32.69;100935.97;5004959;28;20038;-43
2021/12/23 01:13:26;;;;;;;292.40;197.38;;;;;;;24.04;33.24;100921.91;5003624;28;20061;-43
2021/12/23 01:18:31;;;;;;;296.30;202.90;;;;;;;24.02;33.09;100915.78;5004710;28;20986;-43
2021/12/23 01:21:14;;;;;;;286.65;202.30;;;;;;;24.01;32.90;100927.13;5004803;28;20026;-42
2021/12/23 01:23:44;;;;;;;301.10;207.05;;;;;;;24.00;33.03;100909.63;5005440;28;20029;-41
2021/12/23 01:26:18;;;;;;;293.10;202.18;;;;;;;23.77;33.15;100884.03;5003835;28;20883;-42
2021/12/23 01:28:48;;;;;;;294.55;205.18;;;;;;;24.01;33.30;100923.63;5004765;28;20030;-42
2021/12/23 01:31:16;;;;;;;298.90;204.35;;;;;;;23.92;33.42;100919.13;5004502;28;20033;-42
2021/12/23 01:33:46;;;;;;;306.73;214.07;;;;;;;23.95;33.00;100921.78;5004659;28;20029;-42
2021/12/23 01:36:14;;;;;;;305.92;209.32;;;;;;;23.88;33.20;100914.69;5005062;28;20037;-42
2021/12/23 01:38:43;;;;;;;295.90;208.57;;;;;;;23.87;33.22;100908.59;5004647;28;20025;-42
2021/12/23 01:41:12;;;;;;;296.33;207.68;;;;;;;23.88;33.54;100906.84;5004736;28;20040;-43
2021/12/23 01:43:40;;;;;;;287.15;206.18;;;;;;;23.89;33.18;100903.38;5004229;28;20044;-42
2021/12/23 01:46:09;;;;;;;301.27;210.65;;;;;;;23.91;33.15;100901.66;5004356;28;20032;-43
2021/12/23 01:48:38;;;;;;;293.88;210.93;;;;;;;23.86;33.42;100903.31;5004054;28;20136;-42
2021/12/23 01:51:07;;;;;;;303.50;212.85;;;;;;;23.92;33.11;100903.41;5004211;28;20034;-42
2021/12/23 01:53:36;;;;;;;312.88;216.65;;;;;;;23.93;33.22;100895.56;5004066;28;20033;-42
2021/12/23 01:56:04;;;;;;;309.90;215.30;;;;;;;23.87;33.48;100895.50;4970821;28;20036;-42
2021/12/23 01:58:40;;;;;;;293.60;208.55;;;;;;;23.88;33.15;100898.97;5002833;28;20407;-42
2021/12/23 02:01:12;;;;;;;302.63;212.45;;;;;;;23.82;33.51;100887.59;5004106;28;20499;-42
2021/12/23 02:03:41;;;;;;;302.27;209.05;;;;;;;23.88;33.48;100888.50;5004197;28;20045;-43
2021/12/23 02:06:10;;;;;;;310.77;211.30;;;;;;;23.81;33.13;100879.69;5004158;28;20400;-44
2021/12/23 02:08:40;;;;;;;311.52;219.07;;;;;;;23.79;33.23;100877.06;5004088;28;20113;-42
2021/12/23 02:11:11;;;;;;;314.15;220.38;;;;;;;23.78;33.62;100877.94;5003518;28;20038;-42
2021/12/23 02:13:42;;;;;;;304.88;216.93;;;;;;;23.80;33.34;100868.34;5003912;28;20022;-42
2021/12/23 02:16:09;;;;;;;314.35;219.77;;;;;;;23.81;33.23;100870.13;5003842;28;20037;-45
2021/12/23 02:18:39;;;;;;;315.77;219.45;;;;;;;23.77;33.27;100878.78;5003603;28;20049;-43
2021/12/23 02:21:11;;;;;;;299.02;215.43;;;;;;;23.75;33.52;100884.84;5003964;28;20479;-42
2021/12/23 02:23:40;;;;;;;313.33;219.07;;;;;;;23.79;33.25;100878.78;5003996;28;20558;-42
2021/12/23 02:26:08;;;;;;;317.00;218.10;;;;;;;23.73;33.43;100876.13;5003877;28;20040;-42
2021/12/23 02:28:37;;;;;;;307.60;220.65;;;;;;;23.79;33.69;100877.06;5003328;28;20030;-42
2021/12/23 02:31:05;;;;;;;314.50;219.95;;;;;;;23.78;33.63;100875.31;5003472;28;20096;-42
2021/12/23 02:33:34;;;;;;;322.90;223.68;;;;;;;23.71;33.72;100868.22;5003712;28;20100;-43
2021/12/23 02:36:03;;;;;;;312.80;219.55;;;;;;;23.71;33.42;100862.13;5003482;28;20125;-43
2021/12/23 02:38:31;;;;;;;314.38;219.35;;;;;;;23.80;33.56;100873.59;5003857;28;20041;-42
2021/12/23 02:41:01;;;;;;;311.40;223.73;;;;;;;23.78;33.46;100877.94;5003904;28;20057;-42
2021/12/23 02:43:29;;;;;;;315.38;221.75;;;;;;;23.78;33.64;100872.69;5003480;28;20076;-42
2021/12/23 02:46:00;;;;;;;312.13;220.77;;;;;;;23.71;33.75;100860.38;5003514;28;20239;-43
2021/12/23 02:48:34;;;;;;;320.13;225.77;;;;;;;23.73;33.42;100870.88;5001828;28;20038;-43
2021/12/23 02:51:09;;;;;;;324.67;225.77;;;;;;;23.71;33.40;100865.59;5006762;28;20025;-42
2021/12/23 02:53:38;;;;;;;327.20;223.98;;;;;;;23.71;33.86;100860.38;5007202;28;20416;-42
2021/12/23 02:56:09;;;;;;;318.63;222.40;;;;;;;23.70;33.77;100855.13;5007427;28;20121;-43
2021/12/23 02:58:37;;;;;;;328.80;225.82;;;;;;;23.69;33.77;100858.59;5007294;28;20110;-43
2021/12/23 03:01:12;;;;;;;317.58;220.35;;;;;;;23.60;33.57;100856.75;5007352;28;20153;-42
2021/12/23 03:03:40;;;;;;;;;;;;;;;23.42;33.67;100800.66;5008122;28;20100;-42
2021/12/23 03:06:09;;;;;;;322.60;225.10;;;;;;;23.75;33.51;100856.94;5007319;28;19926;-42
2021/12/23 03:08:40;;;;;;;324.10;230.02;;;;;;;23.79;33.72;100850.88;5007183;28;20855;-42
2021/12/23 03:11:12;;;;;;;322.10;224.43;;;;;;;23.71;33.47;100835.94;5006037;28;20029;-42
2021/12/23 03:13:42;;;;;;;320.95;221.82;;;;;;;23.78;33.69;100841.25;5007188;28;20030;-42
2021/12/23 03:16:12;;;;;;;324.55;224.85;;;;;;;23.80;33.41;100842.16;5007281;28;20061;-42
2021/12/23 03:18:42;;;;;;;322.13;225.20;;;;;;;23.72;33.25;100822.84;5005799;28;20025;-44
2021/12/23 03:21:10;;;;;;;316.92;220.82;;;;;;;23.69;33.80;100827.16;5007101;28;20169;-42
2021/12/23 03:23:39;;;;;;;326.13;224.82;;;;;;;23.64;33.90;100827.13;5007014;28;20030;-44
2021/12/23 03:26:08;;;;;;;329.98;225.43;;;;;;;23.64;33.73;100819.25;5006456;28;20037;-42
2021/12/23 03:28:37;;;;;;;333.40;232.45;;;;;;;23.64;33.77;100822.75;5006754;28;20029;-42
2021/12/23 03:31:06;;;;;;;328.40;229.35;;;;;;;23.63;33.98;100815.75;5006601;28;20135;-42
2021/12/23 03:33:34;;;;;;;333.25;230.25;;;;;;;23.58;33.75;100813.94;5006851;28;20026;-42
2021/12/23 03:36:04;;;;;;;322.95;226.52;;;;;;;23.57;34.00;100820.03;5007033;28;20041;-42
2021/12/23 03:38:38;;;;;;;331.00;235.70;;;;;;;23.53;34.30;100816.50;5006493;28;20484;-43
2021/12/23 03:41:07;;;;;;;325.27;228.57;;;;;;;23.52;33.90;100820.84;5006290;28;20042;-42
2021/12/23 03:43:35;;;;;;;322.65;231.43;;;;;;;23.50;34.03;100813.84;5006422;28;20029;-42
2021/12/23 03:46:04;;;;;;;327.95;232.68;;;;;;;23.52;34.18;100817.38;5006707;28;20477;-41
2021/12/23 03:48:32;;;;;;;342.05;235.65;;;;;;;23.60;34.09;100804.38;5005190;28;20048;-42
2021/12/23 03:51:01;;;;;;;329.67;230.65;;;;;;;23.58;34.21;100799.09;5006482;28;20034;-42
2021/12/23 03:53:30;;;;;;;341.08;238.00;;;;;;;23.55;34.29;100798.19;5006402;28;20029;-42
2021/12/23 03:55:59;;;;;;;332.48;235.65;;;;;;;23.53;34.40;100790.31;5006447;28;20108;-42
2021/12/23 03:58:27;;;;;;;338.25;235.90;;;;;;;23.56;34.29;100799.94;5006214;28;20396;-42
2021/12/23 04:00:56;;;;;;;337.30;240.57;;;;;;;23.51;34.45;100787.66;5004217;28;20193;-42
2021/12/23 04:03:25;;;;;;;348.02;242.57;;;;;;;23.52;34.46;100784.19;5005890;28;20026;-42
2021/12/23 04:05:53;;;;;;;328.08;234.73;;;;;;;23.49;34.34;100786.81;5006348;28;20025;-42
2021/12/23 04:08:22;;;;;;;335.95;238.82;;;;;;;23.48;34.34;100773.66;5006482;28;20468;-42
2021/12/23 04:10:50;;;;;;;338.95;241.43;;;;;;;23.49;34.33;100775.44;5006242;28;20930;-41
2021/12/23 04:13:19;;;;;;;340.95;240.45;;;;;;;23.45;34.41;100766.66;5006012;28;20175;-41
2021/12/23 04:15:47;;;;;;;334.90;236.90;;;;;;;23.46;34.50;100768.44;5006030;28;20030;-41
2021/12/23 04:18:17;;;;;;;346.48;242.80;;;;;;;23.39;34.61;100766.59;5006092;28;20542;-41
2021/12/23 04:20:54;;;;;;;335.75;240.63;;;;;;;23.44;34.34;100766.63;5006226;28;20040;-41
2021/12/23 04:23:27;;;;;;;357.77;250.75;;;;;;;23.54;34.24;100762.38;5005901;28;20042;-41
2021/12/23 04:25:56;;;;;;;348.33;242.13;;;;;;;23.50;34.17;100754.50;5005832;28;20117;-41
2021/12/23 04:28:25;;;;;;;358.30;241.13;;;;;;;23.43;34.39;100763.16;5005944;28;20105;-42
2021/12/23 04:30:58;;;;;;;354.30;246.13;;;;;;;23.51;34.55;100761.47;5005787;28;20189;-42
2021/12/23 04:33:26;;;;;;;359.45;246.90;;;;;;;23.50;34.40;100762.34;5005534;28;20534;-41
2021/12/23 04:35:54;;;;;;;359.27;250.20;;;;;;;23.44;34.71;100759.69;5005613;28;20034;-41
2021/12/23 04:38:22;;;;;;;348.48;244.43;;;;;;;23.42;34.50;100758.78;5005831;28;20503;-41
2021/12/23 04:40:50;;;;;;;342.65;244.40;;;;;;;23.50;34.73;100757.09;5005617;28;20022;-41
2021/12/23 04:43:19;;;;;;;363.70;253.38;;;;;;;23.56;34.29;100760.66;5005473;28;20033;-41
2021/12/23 04:45:52;;;;;;;352.15;252.48;;;;;;;23.48;34.47;100768.44;5005295;28;20071;-40
2021/12/23 04:48:23;;;;;;;358.52;248.98;;;;;;;23.44;34.57;100764.91;5005520;28;20025;-41
2021/12/23 04:50:55;;;;;;;352.45;241.90;;;;;;;23.39;34.42;100750.88;5005142;28;20096;-41
2021/12/23 04:53:28;;;;;;;356.27;250.68;;;;;;;23.40;34.64;100762.25;5004017;28;20025;-41
2021/12/23 04:55:57;;;;;;;364.05;254.65;;;;;;;23.39;34.56;100761.34;5005047;28;20469;-42
2021/12/23 04:58:29;;;;;;;363.25;254.00;;;;;;;23.39;34.91;100766.59;5004064;28;20511;-41
2021/12/23 05:00:57;;;;;;;360.67;251.75;;;;;;;23.44;34.68;100761.41;5003453;28;20077;-41
2021/12/23 05:03:30;;;;;;;345.15;245.63;;;;;;;23.38;34.55;100751.72;5003807;28;20037;-41
2021/12/23 05:05:59;;;;;;;345.05;246.27;;;;;;;23.38;34.78;100749.13;5005164;28;20029;-42
2021/12/23 05:08:28;;;;;;;358.98;245.63;;;;;;;23.39;34.59;100745.63;5004769;28;20033;-42
2021/12/23 05:11:02;;;;;;;359.48;253.23;;;;;;;23.32;34.75;100749.06;5005005;28;20046;-42
2021/12/23 05:13:31;;;;;;;347.43;240.57;;;;;;;23.37;34.82;100742.13;5004401;28;20685;-41
2021/12/23 05:16:05;;;;;;;343.67;246.68;;;;;;;23.43;34.69;100743.94;5004941;28;20096;-41
2021/12/23 05:18:34;;;;;;;344.10;246.27;;;;;;;23.45;34.53;100740.50;5004841;28;20527;-41
2021/12/23 05:21:03;;;;;;;351.23;248.82;;;;;;;23.39;34.79;100745.63;5005099;28;20468;-43
2021/12/23 05:23:32;;;;;;;343.85;243.07;;;;;;;23.34;34.79;100742.97;5004620;28;20021;-41
2021/12/23 05:26:01;;;;;;;360.52;249.75;;;;;;;23.36;34.62;100749.13;5004943;28;20041;-41
2021/12/23 05:28:29;;;;;;;355.42;245.80;;;;;;;23.32;35.03;100749.94;5004122;28;20052;-41
2021/12/23 05:30:58;;;;;;;359.58;244.50;;;;;;;23.27;35.01;100750.72;5004580;28;20037;-41
2021/12/23 05:33:27;;;;;;;347.77;241.77;;;;;;;23.31;34.69;100753.41;5004588;28;20037;-41
2021/12/23 05:35:58;;;;;;;352.85;247.95;;;;;;;23.39;34.63;100745.63;5003649;28;20026;-42
2021/12/23 05:38:27;;;;;;;343.33;241.57;;;;;;;23.42;34.50;100744.78;5004374;28;20033;-41
2021/12/23 05:40:57;;;;;;;348.88;247.93;;;;;;;23.44;34.41;100743.97;5004392;28;20041;-43
2021/12/23 05:43:26;;;;;;;355.63;247.75;;;;;;;23.36;34.61;100742.97;5004701;28;20037;-41
2021/12/23 05:45:54;;;;;;;358.33;250.98;;;;;;;23.37;34.92;100752.59;5004334;28;20047;-42
2021/12/23 05:48:23;;;;;;;354.60;250.60;;;;;;;23.35;34.76;100746.47;5004504;28;20088;-41
2021/12/23 05:50:54;;;;;;;348.30;248.60;;;;;;;23.30;34.88;100745.53;5004187;28;20058;-40
2021/12/23 05:53:22;;;;;;;356.70;250.73;;;;;;;23.22;35.18;100742.84;5004581;28;20051;-41
2021/12/23 05:55:55;;;;;;;356.80;252.48;;;;;;;23.26;35.29;100747.22;5004196;28;20538;-41
2021/12/23 05:58:26;;;;;;;343.40;250.45;;;;;;;23.32;34.79;100749.06;5004482;28;20121;-42
2021/12/23 06:00:55;;;;;;;364.50;258.00;;;;;;;23.50;34.56;100749.25;5002660;28;20107;-40
2021/12/23 06:03:24;;;;;;;360.08;251.55;;;;;;;23.52;34.36;100752.78;5004107;28;20026;-41
2021/12/23 06:05:53;;;;;;;365.13;256.88;;;;;;;23.39;35.07;100770.94;5004472;28;20108;-41
2021/12/23 06:08:21;;;;;;;361.52;257.15;;;;;;;23.38;34.92;100780.53;5004154;28;20112;-41
2021/12/23 06:10:50;;;;;;;363.92;261.02;;;;;;;23.44;35.11;100779.72;5003907;28;20373;-41
2021/12/23 06:13:20;;;;;;;363.88;261.08;;;;;;;23.39;34.86;100784.03;5003791;28;20117;-41
2021/12/23 06:15:48;;;;;;;363.33;257.73;;;;;;;23.21;35.46;100783.81;5003885;28;20133;-41
2021/12/23 06:18:17;;;;;;;378.50;262.95;;;;;;;23.31;34.90;100786.56;5003918;28;20566;-42
2021/12/23 06:20:46;;;;;;;365.50;261.17;;;;;;;23.24;35.16;100782.09;5002724;28;20057;-42
2021/12/23 06:23:15;;;;;;;368.58;258.77;;;;;;;23.29;35.07;100799.59;5002579;28;20479;-41
2021/12/23 06:25:44;;;;;;;372.42;263.42;;;;;;;23.34;35.36;100799.66;5003409;28;20092;-43
2021/12/23 06:28:16;;;;;;;375.88;260.02;;;;;;;23.26;35.27;100801.31;5003452;28;20121;-41
2021/12/23 06:30:44;;;;;;;382.20;261.50;;;;;;;23.25;35.17;100799.56;5003964;28;20166;-41
2021/12/23 06:33:12;;;;;;;382.48;266.88;;;;;;;23.27;35.26;100801.31;5004010;28;20383;-41
2021/12/23 06:35:41;;;;;;;376.13;262.23;;;;;;;23.14;35.70;100796.75;5002097;28;20042;-41
2021/12/23 06:38:11;;;;;;;377.88;264.50;;;;;;;23.19;35.30;100784.63;5003720;28;20040;-41
2021/12/23 06:40:40;;;;;;;369.13;262.17;;;;;;;23.12;35.45;100788.91;5003798;28;20080;-42
2021/12/23 06:43:09;;;;;;;366.77;257.88;;;;;;;23.19;35.40;100788.09;5002341;28;20387;-42
2021/12/23 06:45:37;;;;;;;364.33;255.82;;;;;;;23.12;35.35;100769.69;5003722;28;20034;-42
2021/12/23 06:48:06;;;;;;;365.10;262.15;;;;;;;23.23;35.22;100773.38;5003943;28;20030;-42
2021/12/23 06:50:35;;;;;;;375.13;263.20;;;;;;;23.32;35.25;100785.72;5003133;28;20462;-41
2021/12/23 06:53:06;;;;;;;352.35;252.75;;;;;;;23.29;35.55;100778.66;5003854;28;20232;-42
2021/12/23 06:55:35;;;;;;;364.42;260.33;;;;;;;23.16;35.46;100795.03;5003721;28;20038;-41
2021/12/23 06:58:03;;;;;;;365.52;260.85;;;;;;;23.13;35.69;100793.28;5003701;28;20037;-42
2021/12/23 07:00:32;;;;;;;368.08;259.35;;;;;;;23.21;35.35;100796.91;5003431;28;20050;-41
2021/12/23 07:03:00;;;;;;;359.05;260.88;;;;;;;23.13;35.77;100785.44;5003568;28;20082;-42
2021/12/23 07:05:29;;;;;;;360.40;262.17;;;;;;;23.16;35.73;100795.94;5003515;28;20037;-44
2021/12/23 07:08:05;;;;;;;368.40;264.85;;;;;;;23.18;35.61;100799.44;5003273;28;20074;-40
2021/12/23 07:10:34;;;;;;;373.58;261.85;;;;;;;23.13;35.58;100790.66;5003454;28;20041;-42
2021/12/23 07:13:03;;;;;;;362.75;263.15;;;;;;;23.10;35.62;100779.25;5003804;28;20030;-42
2021/12/23 07:15:32;;;;;;;363.50;256.08;;;;;;;23.08;35.54;100771.38;5001902;28;20124;-43
2021/12/23 07:18:01;;;;;;;361.85;255.07;;;;;;;23.09;35.44;100772.25;5003410;28;20403;-44
2021/12/23 07:20:30;;;;;;;372.45;261.33;;;;;;;23.04;35.57;100762.63;5003434;28;20119;-42
2021/12/23 07:23:00;;;;;;;360.10;251.50;;;;;;;23.10;35.72;100769.69;5003490;28;20745;-44
2021/12/23 07:25:28;;;;;;;353.70;250.95;;;;;;;23.21;35.23;100751.53;5003462;28;20411;-41
2021/12/23 07:27:57;;;;;;;353.08;249.32;;;;;;;23.21;35.35;100759.41;5003076;28;20116;-41
2021/12/23 07:30:25;;;;;;;355.42;249.40;;;;;;;23.08;35.41;100760.94;5003018;28;20044;-41
2021/12/23 07:32:54;;;;;;;338.08;238.57;;;;;;;23.10;35.43;100767.06;5003233;28;20065;-41
2021/12/23 07:35:22;;;;;;;349.98;243.30;;;;;;;22.87;35.80;100717.03;5003445;28;20150;-41
2021/12/23 07:37:50;;;;;;;335.42;236.48;;;;;;;23.13;35.65;100759.25;5008924;28;20030;-42
2021/12/23 07:40:17;;;;;;;332.48;236.02;;;;;;;23.17;35.62;100763.66;5005509;28;20480;-40
2021/12/23 07:45:34;;;;;;;333.45;236.02;;;;;;;23.18;35.27;100772.41;4988880;28;20081;-41
2021/12/23 07:48:02;;;;;;;330.83;232.93;;;;;;;23.16;35.73;100769.78;5006701;28;20029;-41
2021/12/23 07:50:31;;;;;;;340.00;234.07;;;;;;;23.14;35.71;100767.97;5006903;28;20885;-41
2021/12/23 07:53:00;;;;;;;330.67;235.57;;;;;;;23.08;35.55;100767.91;5006787;28;20033;-41
2021/12/23 07:55:28;;;;;;;331.75;230.27;;;;;;;23.01;35.95;100767.81;5006662;28;20116;-41
2021/12/23 07:57:56;;;;;;;332.10;229.52;;;;;;;23.10;35.65;100767.06;5006280;28;20116;-42
2021/12/23 08:00:29;;;;;;;335.15;233.18;;;;;;;23.15;35.41;100759.25;5006373;28;20057;-41
2021/12/23 08:02:57;;;;;;;325.50;220.52;;;;;;;23.04;35.69;100759.13;5008140;28;20133;-41
2021/12/23 08:05:26;;;;;;;322.05;220.27;;;;;;;23.13;35.77;100764.50;5006260;28;20100;-42
2021/12/23 08:07:55;;;;;;;315.83;221.77;;;;;;;23.10;35.60;100761.81;5006097;28;20037;-40
2021/12/23 08:10:23;;;;;;;320.73;222.88;;;;;;;23.14;35.71;100754.88;5016700;28;20505;-42
2021/12/23 08:12:52;;;;;;;332.95;222.05;;;;;;;23.12;36.01;100756.59;5011392;28;20368;-41
2021/12/23 08:15:20;;;;;;;329.38;229.32;;;;;;;23.22;35.60;100755.91;5012050;28;20033;-41
2021/12/23 08:17:50;;;;;;;314.98;226.60;;;;;;;23.10;36.21;100746.13;5010542;28;20045;-41
2021/12/23 08:20:19;;;;;;;328.20;221.98;;;;;;;23.13;36.14;100748.78;5006284;28;20040;-43
2021/12/23 08:22:47;;;;;;;311.48;221.85;;;;;;;23.11;35.91;100740.03;5006108;28;20022;-41
2021/12/23 08:25:16;;;;;;;317.83;216.30;;;;;;;23.14;36.07;100739.19;5005931;28;20042;-41
2021/12/23 08:27:45;;;;;;;304.05;216.27;;;;;;;23.09;36.16;100730.38;5004444;28;20052;-41
2021/12/23 08:30:17;;;;;;;321.77;215.43;;;;;;;23.17;36.00;100726.16;5013538;28;20034;-41
2021/12/23 08:32:47;;;;;;;310.73;215.15;;;;;;;23.14;36.40;100724.38;5007841;28;20026;-41
2021/12/23 08:35:17;;;;;;;320.10;215.45;;;;;;;23.11;36.78;100724.34;5005818;28;20038;-43
2021/12/23 08:37:48;;;;;;;302.35;212.68;;;;;;;23.14;36.37;100719.16;5008835;28;20364;-41
2021/12/23 08:40:19;;;;;;;313.38;219.40;;;;;;;23.15;36.86;100720.91;5013245;28;20033;-41
2021/12/23 08:42:49;;;;;;;309.92;214.77;;;;;;;23.16;36.37;100716.53;5020625;28;20033;-41
2021/12/23 08:45:18;;;;;;;305.08;214.82;;;;;;;23.15;36.77;100717.41;5005149;28;20083;-41
2021/12/23 08:47:47;;;;;;;317.33;217.40;;;;;;;23.18;36.78;100723.53;5004540;28;20030;-41
2021/12/23 08:50:17;;;;;;;318.98;218.85;;;;;;;23.17;36.38;100727.00;5005346;28;20514;-41
2021/12/23 08:52:46;;;;;;;311.63;216.68;;;;;;;23.22;36.58;100724.50;5005178;28;20029;-41
2021/12/23 08:55:15;;;;;;;311.17;218.25;;;;;;;23.21;36.58;100736.69;5013371;28;20068;-41
2021/12/23 08:57:44;;;;;;;307.48;209.65;;;;;;;23.38;36.19;100736.03;5004876;28;20125;-41
2021/12/23 09:00:16;;;;;;;298.02;199.27;;;;;;;23.40;35.92;100736.94;5005135;28;20049;-41
2021/12/23 09:02:48;;;;;;;281.77;198.75;;;;;;;23.24;36.52;100740.22;5005061;28;20430;-42
2021/12/23 09:05:21;;;;;;;305.10;212.32;;;;;;;23.24;36.64;100737.59;5008465;28;20041;-42
2021/12/23 09:07:50;;;;;;;288.20;199.95;;;;;;;23.24;36.29;100737.59;5007250;28;20483;-41
2021/12/23 09:10:19;;;;;;;278.95;190.32;;;;;;;23.29;36.28;100744.66;5009417;28;20095;-42
2021/12/23 09:12:48;;;;;;;289.60;195.73;;;;;;;23.35;36.10;100760.44;5005228;28;20045;-42
2021/12/23 09:15:16;;;;;;;297.70;203.50;;;;;;;23.37;36.11;100799.72;5003380;28;20037;-42
2021/12/23 09:17:46;;;;;;;287.83;204.48;;;;;;;23.38;36.32;100804.09;5008225;28;20079;-41
2021/12/23 09:20:16;;;;;;;287.65;201.80;;;;;;;23.39;36.09;100779.66;5010648;28;20022;-41
2021/12/23 09:22:46;;;;;;;302.98;204.77;;;;;;;23.44;35.97;100805.91;5004415;28;20045;-41
2021/12/23 09:25:23;;;;;;;296.67;203.45;;;;;;;23.35;36.16;100807.56;5004810;28;20356;-41
2021/12/23 09:33:19;;;;;;;302.98;204.18;;;;;;;23.43;36.25;100822.47;4996773;28;20419;-43
2021/12/23 09:35:47;;;;;;;324.65;215.20;;;;;;;23.49;36.16;100815.59;5009082;28;20037;-42
2021/12/23 09:38:14;;;;;;;313.25;214.82;;;;;;;23.59;36.08;100807.84;5004715;28;20850;-47
2021/12/23 09:40:42;;;;;;;308.85;212.57;;;;;;;23.54;36.30;100813.03;5004093;28;20033;-41
2021/12/23 09:43:11;;;;;;;295.35;205.82;;;;;;;23.51;36.38;100800.75;4990850;28;20091;-41
2021/12/23 09:45:40;;;;;;;302.58;207.70;;;;;;;23.50;35.95;100801.63;5005459;28;20056;-42
2021/12/23 09:48:08;;;;;;;290.63;202.75;;;;;;;23.57;35.99;100807.84;5005210;28;20029;-41
2021/12/23 09:50:39;;;;;;;293.15;209.40;;;;;;;23.61;36.12;100806.13;5004913;28;20419;-41
2021/12/23 09:53:07;;;;;;;302.75;208.32;;;;;;;23.64;36.22;100801.78;5009701;28;20503;-41
2021/12/23 09:55:36;;;;;;;313.58;211.48;;;;;;;23.51;36.11;100806.00;5003836;28;20045;-42
2021/12/23 09:58:05;;;;;;;309.98;209.63;;;;;;;23.43;36.29;100798.91;5003841;28;20135;-42
2021/12/23 10:00:36;;;;;;;303.20;211.05;;;;;;;23.50;36.23;100795.53;5002839;28;20095;-41
2021/12/23 10:03:04;;;;;;;308.13;209.52;;;;;;;23.47;36.39;100806.84;5002078;28;20117;-42
2021/12/23 10:05:33;;;;;;;309.25;216.82;;;;;;;23.56;36.20;100805.19;5005458;28;20343;-41
2021/12/23 10:08:02;;;;;;;308.73;216.05;;;;;;;23.54;36.31;100807.78;5003883;28;20456;-41
2021/12/23 10:11:15;;;;;;;299.30;208.10;;;;;;;23.53;36.41;100813.88;5007015;28;20029;-42
2021/12/23 10:38:14;;;;;;;334.65;235.70;;;;;;;23.60;36.30;100817.47;4999780;28;20042;-41
2021/12/23 10:40:46;;;;;;;327.77;234.55;;;;;;;23.61;36.59;100821.84;5003249;28;20034;-41
2021/12/23 10:43:35;;;;;;;318.25;229.25;;;;;;;23.60;36.34;100828.81;5007420;28;20034;-41
2021/12/23 10:46:10;;;;;;;333.25;235.90;;;;;;;23.64;36.55;100814.03;4994956;28;20052;-41
2021/12/23 10:49:03;;;;;;;337.92;238.23;;;;;;;23.70;36.21;100819.31;5005927;28;20091;-43
2021/12/23 10:51:56;;;;;;;326.80;228.68;;;;;;;23.75;36.23;100806.25;5003321;28;20117;-41
2021/12/23 10:58:21;;;;;;;335.38;233.95;;;;;;;23.68;36.17;100813.19;5003986;28;20057;-42
2021/12/23 11:00:41;;;;;;;348.95;242.30;;;;;;;23.80;36.00;100817.69;4998280;28;20129;-42
2021/12/23 11:03:21;;;;;;;340.95;235.43;;;;;;;23.56;36.42;100805.19;5003598;28;20029;-42
2021/12/23 11:06:28;;;;;;;331.60;237.80;;;;;;;23.58;36.46;100813.94;5003782;28;20120;-41
2021/12/23 11:09:52;;;;;;;326.33;233.50;;;;;;;23.63;36.43;100793.94;4987456;28;20029;-41
2021/12/23 11:12:10;;;;;;;333.67;235.57;;;;;;;23.62;36.34;100800.03;5005390;28;20041;-41
2021/12/23 11:42:37;;;;;;;328.48;225.55;;;;;;;23.52;36.96;100799.03;4997280;28;20377;-41
2021/12/23 11:45:06;;;;;;;322.38;224.88;;;;;;;23.63;36.34;100792.19;5005360;28;20053;-41
2021/12/23 11:47:34;;;;;;;322.08;224.65;;;;;;;23.56;36.84;100793.00;5006825;28;20064;-42
2021/12/23 11:50:03;;;;;;;318.92;219.15;;;;;;;23.67;36.68;100793.09;5006134;28;20469;-42
2021/12/23 11:52:32;;;;;;;314.40;219.18;;;;;;;23.65;36.42;100793.09;5006594;28;20057;-42
2021/12/23 11:55:01;;;;;;;320.35;218.13;;;;;;;23.64;36.39;100787.84;5005119;28;20041;-43
2021/12/23 11:57:35;;;;;;;318.40;222.35;;;;;;;23.60;36.79;100784.28;5010956;28;20080;-43
2021/12/23 12:00:17;;;;;;;315.42;218.40;;;;;;;23.54;36.94;100785.94;5006486;28;20141;-43
2021/12/23 12:02:46;;;;;;;312.17;213.30;;;;;;;23.51;37.01;100782.44;5006489;28;20034;-45
2021/12/23 12:05:18;;;;;;;298.63;207.43;;;;;;;23.50;37.08;100767.59;5005083;28;20034;-45
2021/12/23 12:07:47;;;;;;;299.52;209.52;;;;;;;23.59;36.48;100768.56;5005705;28;20077;-44
2021/12/23 12:10:24;;;;;;;299.20;206.38;;;;;;;23.56;36.67;100769.41;5012993;28;20025;-45
2021/12/23 12:13:04;;;;;;;281.02;198.55;;;;;;;23.58;36.49;100765.06;5006500;28;20026;-44
2021/12/23 12:15:47;;;;;;;291.33;203.73;;;;;;;23.63;36.76;100759.88;5006093;28;20475;-45
2021/12/23 12:18:22;;;;;;;280.92;196.80;;;;;;;23.54;36.83;100763.28;5006002;28;20909;-45
2021/12/23 12:20:54;;;;;;;;;;;;;;;23.69;36.53;100762.56;5006821;28;20423;-44